createdAt,value
2019-01-18T00:00:33.933Z,6.23
2019-01-18T00:03:02.544Z,10.00
2019-01-18T00:05:31.112Z,5.87
2019-01-18T00:07:59.724Z,9.50
2019-01-18T00:10:28.303Z,3.80
2019-01-18T00:12:56.892Z,13.40
2019-01-18T00:15:25.471Z,4.27
2019-01-18T00:17:54.082Z,6.77
2019-01-18T00:20:22.641Z,5.93
2019-01-18T00:22:51.250Z,7.50
2019-01-18T00:25:19.821Z,4.50
2019-01-18T00:27:48.475Z,6.13
2019-01-18T00:30:19.686Z,5.53
2019-01-18T00:32:48.313Z,5.37
2019-01-18T00:35:16.952Z,6.73
2019-01-18T00:37:45.559Z,4.33
2019-01-18T00:40:17.299Z,13.90
2019-01-18T00:42:45.878Z,3.00
2019-01-18T00:45:16.858Z,8.50
2019-01-18T00:47:45.589Z,3.97
2019-01-18T00:50:16.680Z,2.80
2019-01-18T00:52:45.292Z,1.97
2019-01-18T00:55:13.939Z,2.70
2019-01-18T00:57:42.558Z,1.80
2019-01-18T01:00:23.071Z,4.93
2019-01-18T01:02:51.843Z,4.60
2019-01-18T01:05:21.752Z,4.17
2019-01-18T01:07:50.473Z,3.30
2019-01-18T01:10:19.183Z,2.67
2019-01-18T01:12:47.830Z,4.57
2019-01-18T01:15:19.312Z,3.00
2019-01-18T01:17:48.366Z,2.30
2019-01-18T01:20:19.844Z,3.00
2019-01-18T01:22:49.157Z,2.20
2019-01-18T01:25:17.793Z,3.93
2019-01-18T01:27:46.782Z,3.87
2019-01-18T01:30:23.338Z,3.17
2019-01-18T01:32:52.051Z,2.60
2019-01-18T01:35:20.745Z,1.90
2019-01-18T01:37:49.717Z,5.57
2019-01-18T01:40:20.728Z,2.73
2019-01-18T01:42:49.317Z,1.00
2019-01-18T01:45:18.026Z,1.43
2019-01-18T01:47:46.647Z,3.20
2019-01-18T01:50:21.401Z,1.50
2019-01-18T01:52:50.323Z,7.00
2019-01-18T01:55:18.978Z,3.63
2019-01-18T01:57:47.595Z,1.33
2019-01-18T02:00:18.599Z,4.03
2019-01-18T02:02:47.333Z,3.40
2019-01-18T02:05:16.285Z,5.63
2019-01-18T02:07:45.282Z,10.53
2019-01-18T02:10:15.974Z,1.20
2019-01-18T02:12:44.662Z,1.53
2019-01-18T02:15:21.606Z,3.23
2019-01-18T02:17:50.275Z,2.33
2019-01-18T02:20:20.756Z,2.60
2019-01-18T02:22:50.315Z,2.20
2019-01-18T02:25:19.015Z,4.07
2019-01-18T02:27:47.775Z,3.00
2019-01-18T02:30:22.396Z,2.50
2019-01-18T02:32:51.117Z,2.60
2019-01-18T02:35:19.757Z,2.10
2019-01-18T02:37:48.356Z,2.80
2019-01-18T02:40:16.977Z,2.80
2019-01-18T02:42:45.677Z,3.20
2019-01-18T02:45:20.152Z,2.97
2019-01-18T02:47:48.817Z,2.30
2019-01-18T02:50:18.913Z,2.33
2019-01-18T02:52:47.623Z,5.70
2019-01-18T02:55:16.184Z,2.40
2019-01-18T02:57:44.860Z,3.70
2019-01-18T03:00:19.132Z,2.40
2019-01-18T03:02:47.751Z,1.63
2019-01-18T03:05:18.926Z,1.33
2019-01-18T03:07:47.561Z,3.40
2019-01-18T03:10:19.308Z,5.77
2019-01-18T03:12:47.916Z,1.67
2019-01-18T03:15:16.579Z,3.17
2019-01-18T03:17:45.151Z,2.73
2019-01-18T03:20:15.564Z,1.83
2019-01-18T03:22:44.272Z,2.47
2019-01-18T03:25:15.460Z,4.97
2019-01-18T03:27:44.085Z,2.50
2019-01-18T03:30:19.995Z,2.40
2019-01-18T03:32:48.277Z,3.70
2019-01-18T03:35:21.367Z,1.50
2019-01-18T03:37:50.023Z,8.10
2019-01-18T03:40:20.021Z,7.03
2019-01-18T03:42:49.217Z,5.50
2019-01-18T03:45:19.437Z,3.37
2019-01-18T03:47:48.424Z,1.90
2019-01-18T03:50:24.960Z,4.43
2019-01-18T03:52:53.747Z,2.83
2019-01-18T03:55:22.446Z,3.13
2019-01-18T03:57:51.144Z,5.07
2019-01-18T04:00:26.588Z,4.93
2019-01-18T04:02:55.762Z,5.40
2019-01-18T04:05:24.404Z,1.40
2019-01-18T04:07:53.119Z,1.40
2019-01-18T04:10:22.816Z,3.80
2019-01-18T04:12:51.506Z,4.13
2019-01-18T04:15:21.897Z,7.00
2019-01-18T04:17:50.640Z,2.50
2019-01-18T04:20:21.801Z,7.50
2019-01-18T04:22:50.569Z,1.17
2019-01-18T04:25:20.849Z,2.50
2019-01-18T04:27:49.465Z,8.97
2019-01-18T04:30:21.070Z,2.90
2019-01-18T04:32:50.048Z,1.30
2019-01-18T04:35:18.946Z,4.83
2019-01-18T04:37:47.591Z,4.20
2019-01-18T04:40:22.275Z,3.47
2019-01-18T04:42:51.084Z,7.23
2019-01-18T04:45:19.878Z,6.73
2019-01-18T04:47:48.498Z,5.67
2019-01-18T04:50:19.640Z,2.73
2019-01-18T04:52:48.363Z,5.07
2019-01-18T04:55:16.944Z,4.30
2019-01-18T04:57:45.712Z,4.03
2019-01-18T05:00:28.679Z,6.43
2019-01-18T05:02:57.341Z,6.00
2019-01-18T05:05:26.848Z,6.07
2019-01-18T05:07:55.507Z,10.70
2019-01-18T05:10:26.560Z,5.80
2019-01-18T05:12:55.244Z,6.23
2019-01-18T05:15:29.806Z,6.03
2019-01-18T05:17:58.397Z,5.40
2019-01-18T05:20:26.964Z,6.73
2019-01-18T05:22:55.572Z,3.63
2019-01-18T05:25:24.121Z,4.07
2019-01-18T05:27:52.789Z,1.83
2019-01-18T05:30:23.998Z,4.40
2019-01-18T05:32:52.673Z,3.23
2019-01-18T05:35:21.261Z,2.10
2019-01-18T05:37:49.856Z,3.53
2019-01-18T05:40:20.827Z,2.60
2019-01-18T05:42:49.869Z,5.47
2019-01-18T05:45:20.947Z,5.90
2019-01-18T05:47:49.549Z,1.30
2019-01-18T05:50:20.256Z,5.27
2019-01-18T05:52:49.006Z,4.10
2019-01-18T05:55:17.994Z,1.20
2019-01-18T05:57:46.665Z,2.37
2019-01-18T06:00:19.926Z,4.10
2019-01-18T06:02:48.523Z,1.70
2019-01-18T06:05:19.406Z,3.33
2019-01-18T06:07:48.113Z,2.50
2019-01-18T06:10:16.685Z,3.17
2019-01-18T06:12:45.307Z,2.00
2019-01-18T06:15:13.951Z,2.23
2019-01-18T06:17:42.589Z,4.73
2019-01-18T06:20:15.952Z,1.43
2019-01-18T06:22:44.596Z,2.10
2019-01-18T06:25:13.167Z,0.93
2019-01-18T06:27:41.853Z,2.97
2019-01-18T06:30:19.149Z,1.53
2019-01-18T06:32:47.899Z,3.83
2019-01-18T06:35:16.882Z,2.83
2019-01-18T06:37:45.535Z,1.70
2019-01-18T06:40:16.726Z,1.17
2019-01-18T06:42:45.569Z,1.23
2019-01-18T06:45:16.760Z,3.20
2019-01-18T06:47:45.347Z,3.73
2019-01-18T06:50:18.405Z,2.77
2019-01-18T06:52:47.018Z,3.10
2019-01-18T06:55:15.649Z,1.20
2019-01-18T06:57:44.279Z,1.93
2019-01-18T07:00:24.944Z,1.50
2019-01-18T07:02:53.543Z,0.97
2019-01-18T07:05:22.161Z,0.97
2019-01-18T07:07:50.871Z,1.00
2019-01-18T07:10:21.568Z,0.90
2019-01-18T07:12:50.193Z,4.00
2019-01-18T07:15:18.823Z,2.30
2019-01-18T07:17:47.423Z,0.80
2019-01-18T07:20:17.911Z,0.93
2019-01-18T07:22:46.624Z,2.63
2019-01-18T07:25:23.823Z,1.00
2019-01-18T07:27:52.477Z,2.40
2019-01-18T07:30:26.553Z,5.40
2019-01-18T07:32:55.219Z,1.53
2019-01-18T07:35:23.765Z,1.23
2019-01-18T07:37:52.444Z,1.50
2019-01-18T07:40:21.088Z,1.83
2019-01-18T07:42:49.712Z,1.23
2019-01-18T07:45:23.816Z,0.80
2019-01-18T07:47:52.485Z,1.50
2019-01-18T07:50:21.059Z,1.73
2019-01-18T07:52:49.815Z,1.33
2019-01-18T07:55:18.462Z,0.87
2019-01-18T07:57:47.083Z,1.10
2019-01-18T08:00:18.963Z,1.10
2019-01-18T08:02:47.758Z,1.00
2019-01-18T08:05:16.397Z,1.53
2019-01-18T08:07:45.127Z,1.93
2019-01-18T08:10:16.223Z,1.03
2019-01-18T08:12:45.002Z,2.37
2019-01-18T08:15:18.734Z,2.53
2019-01-18T08:17:47.716Z,2.10
2019-01-18T08:20:19.611Z,3.67
2019-01-18T08:22:48.306Z,1.20
2019-01-18T08:25:16.950Z,2.80
2019-01-18T08:27:45.572Z,3.47
2019-01-18T08:30:19.473Z,1.67
2019-01-18T08:32:48.277Z,3.57
2019-01-18T08:35:18.670Z,2.83
2019-01-18T08:37:47.460Z,2.50
2019-01-18T08:40:19.113Z,4.93
2019-01-18T08:42:47.800Z,7.80
2019-01-18T08:45:24.959Z,7.13
2019-01-18T08:47:53.618Z,5.00
2019-01-18T08:50:22.328Z,3.20
2019-01-18T08:52:50.933Z,2.87
2019-01-18T08:55:19.695Z,2.47
2019-01-18T08:57:48.339Z,3.17
2019-01-18T09:00:19.828Z,5.77
2019-01-18T09:02:48.498Z,2.97
2019-01-18T09:05:20.092Z,8.70
2019-01-18T09:07:48.765Z,2.83
2019-01-18T09:10:22.990Z,2.97
2019-01-18T09:12:51.594Z,4.27
2019-01-18T09:15:20.237Z,4.40
2019-01-18T09:17:48.894Z,3.90
2019-01-18T09:20:22.588Z,4.40
2019-01-18T09:22:51.281Z,4.33
2019-01-18T09:25:19.917Z,4.17
2019-01-18T09:27:48.555Z,7.43
2019-01-18T09:30:19.375Z,5.10
2019-01-18T09:32:48.969Z,2.93
2019-01-18T09:35:20.275Z,4.10
2019-01-18T09:37:48.898Z,5.80
2019-01-18T09:40:32.324Z,5.07
2019-01-18T09:43:00.972Z,4.43
2019-01-18T09:45:30.005Z,10.03
2019-01-18T09:47:58.726Z,6.03
2019-01-18T09:50:34.261Z,2.97
2019-01-18T09:53:05.443Z,11.90
2019-01-18T09:55:34.151Z,5.17
2019-01-18T09:58:02.727Z,6.20
2019-01-18T10:00:33.994Z,8.83
2019-01-18T10:03:03.511Z,2.40
2019-01-18T10:05:32.140Z,5.30
2019-01-18T10:08:00.865Z,3.40
2019-01-18T10:10:29.442Z,5.20
2019-01-18T10:12:58.062Z,8.73
2019-01-18T10:15:29.795Z,6.67
2019-01-18T10:18:00.756Z,5.67
2019-01-18T10:20:28.833Z,6.37
2019-01-18T10:22:57.557Z,5.20
2019-01-18T10:25:26.237Z,3.50
2019-01-18T10:27:54.915Z,4.30
2019-01-18T10:30:25.762Z,3.60
2019-01-18T10:32:54.441Z,5.63
2019-01-18T10:35:24.529Z,4.73
2019-01-18T10:37:53.288Z,6.37
2019-01-18T10:40:21.853Z,3.67
2019-01-18T10:42:50.932Z,4.10
2019-01-18T10:45:20.626Z,6.20
2019-01-18T10:47:50.315Z,4.83
2019-01-18T10:50:24.292Z,4.67
2019-01-18T10:52:53.027Z,2.63
2019-01-18T10:55:21.595Z,7.53
2019-01-18T10:57:50.296Z,7.03
2019-01-18T11:00:23.852Z,9.13
2019-01-18T11:02:52.914Z,7.63
2019-01-18T11:05:22.697Z,4.00
2019-01-18T11:07:51.706Z,3.83
2019-01-18T11:10:20.388Z,8.00
2019-01-18T11:12:49.136Z,8.70
2019-01-18T11:15:22.677Z,5.73
2019-01-18T11:17:53.281Z,6.10
2019-01-18T11:20:25.248Z,4.07
2019-01-18T11:22:55.508Z,4.33
2019-01-18T11:25:24.447Z,7.50
2019-01-18T11:27:53.110Z,8.10
2019-01-18T11:30:21.732Z,4.57
2019-01-18T11:32:50.332Z,10.50
2019-01-18T11:35:19.246Z,3.73
2019-01-18T11:37:47.958Z,3.00
2019-01-18T11:40:21.576Z,6.90
2019-01-18T11:42:50.177Z,2.47
2019-01-18T11:45:18.935Z,2.23
2019-01-18T11:47:47.578Z,4.80
2019-01-18T11:50:29.278Z,6.10
2019-01-18T11:52:57.976Z,2.23
2019-01-18T11:55:26.525Z,3.70
2019-01-18T11:57:55.186Z,5.77
2019-01-18T12:00:28.899Z,4.03
2019-01-18T12:02:57.624Z,3.37
2019-01-18T12:05:26.407Z,4.73
2019-01-18T12:07:55.097Z,3.73
2019-01-18T12:10:26.208Z,3.60
2019-01-18T12:12:54.874Z,5.80
2019-01-18T12:15:23.899Z,7.83
2019-01-18T12:17:52.515Z,5.63
2019-01-18T12:20:30.256Z,11.93
2019-01-18T12:22:59.062Z,4.60
2019-01-18T12:25:27.633Z,6.53
2019-01-18T12:27:56.322Z,4.63
2019-01-18T12:30:27.592Z,2.97
2019-01-18T12:32:56.162Z,6.30
2019-01-18T12:35:24.736Z,5.87
2019-01-18T12:37:53.505Z,5.87
2019-01-18T12:40:22.148Z,11.63
2019-01-18T12:42:50.921Z,6.17
2019-01-18T12:45:21.511Z,6.90
2019-01-18T12:47:50.107Z,6.83
2019-01-18T12:50:27.311Z,5.83
2019-01-18T12:52:55.991Z,4.20
2019-01-18T12:55:24.806Z,5.03
2019-01-18T12:57:53.546Z,3.50
2019-01-18T13:00:27.181Z,3.40
2019-01-18T13:02:56.087Z,7.20
2019-01-18T13:05:27.923Z,2.27
2019-01-18T13:07:56.583Z,4.67
2019-01-18T13:10:25.137Z,10.20
2019-01-18T13:12:53.726Z,3.57
2019-01-18T13:15:37.427Z,4.33
2019-01-18T13:18:06.011Z,3.03
2019-01-18T13:20:34.642Z,3.37
2019-01-18T13:23:03.354Z,3.17
2019-01-18T13:25:31.917Z,4.90
2019-01-18T13:28:00.528Z,4.33
2019-01-18T13:30:29.139Z,5.00
2019-01-18T13:32:57.856Z,2.90
2019-01-18T13:35:27.637Z,3.67
2019-01-18T13:37:56.450Z,3.13
2019-01-18T13:40:25.000Z,2.27
2019-01-18T13:42:53.592Z,10.67
2019-01-18T13:45:24.374Z,5.20
2019-01-18T13:47:52.543Z,4.53
2019-01-18T13:50:21.474Z,7.33
2019-01-18T13:52:50.209Z,4.20
2019-01-18T13:55:24.629Z,6.77
2019-01-18T13:57:53.275Z,2.43
2019-01-18T14:00:22.205Z,3.37
2019-01-18T14:02:50.975Z,2.80
2019-01-18T14:05:19.700Z,3.50
2019-01-18T14:07:48.550Z,7.13
2019-01-18T14:10:28.288Z,7.37
2019-01-18T14:12:56.930Z,5.13
2019-01-18T14:15:26.355Z,9.97
2019-01-18T14:17:55.045Z,9.50
2019-01-18T14:20:28.544Z,7.13
2019-01-18T14:22:57.231Z,7.03
2019-01-18T14:25:25.864Z,11.40
2019-01-18T14:27:54.523Z,5.73
2019-01-18T14:30:27.124Z,3.13
2019-01-18T14:32:56.121Z,3.23
2019-01-18T14:35:25.092Z,6.63
2019-01-18T14:37:53.785Z,2.50
2019-01-18T14:40:22.664Z,2.97
2019-01-18T14:42:53.589Z,4.17
2019-01-18T14:45:25.536Z,6.13
2019-01-18T14:47:54.260Z,4.43
2019-01-18T14:50:22.899Z,9.27
2019-01-18T14:52:51.604Z,13.73
2019-01-18T14:55:20.244Z,3.10
2019-01-18T14:57:49.240Z,3.97
2019-01-18T15:00:23.811Z,4.37
2019-01-18T15:02:52.585Z,3.57
2019-01-18T15:05:21.377Z,5.27
2019-01-18T15:07:50.162Z,9.33
2019-01-18T15:10:21.387Z,7.00
2019-01-18T15:12:52.642Z,10.00
2019-01-18T15:15:21.674Z,6.13
2019-01-18T15:17:51.722Z,8.43
2019-01-18T15:20:25.312Z,11.83
2019-01-18T15:22:54.302Z,20.33
2019-01-18T15:25:22.941Z,12.47
2019-01-18T15:27:51.723Z,9.43
2019-01-18T15:30:22.643Z,5.50
2019-01-18T15:32:51.339Z,7.77
2019-01-18T15:35:22.795Z,8.23
2019-01-18T15:37:51.444Z,4.17
2019-01-18T15:40:28.888Z,10.77
2019-01-18T15:42:59.401Z,8.13
2019-01-18T15:45:28.017Z,10.50
2019-01-18T15:47:56.741Z,15.53
2019-01-18T15:50:33.665Z,16.97
2019-01-18T15:53:02.305Z,8.10
2019-01-18T15:55:31.320Z,21.27
2019-01-18T15:57:59.992Z,12.87
2019-01-18T16:00:31.085Z,13.50
2019-01-18T16:02:59.939Z,7.60
2019-01-18T16:05:28.573Z,11.40
2019-01-18T16:07:57.277Z,5.60
2019-01-18T16:10:25.917Z,13.40
2019-01-18T16:12:55.005Z,7.30
2019-01-18T16:15:27.273Z,7.20
2019-01-18T16:17:56.080Z,6.60
2019-01-18T16:20:25.616Z,5.60
2019-01-18T16:22:54.725Z,11.47
2019-01-18T16:25:28.797Z,7.20
2019-01-18T16:27:57.410Z,9.93
2019-01-18T16:30:26.967Z,8.37
2019-01-18T16:32:57.435Z,9.00
2019-01-18T16:35:26.188Z,8.43
2019-01-18T16:37:54.944Z,4.30
2019-01-18T16:40:34.535Z,5.60
2019-01-18T16:43:11.929Z,7.53
2019-01-18T16:45:40.532Z,4.50
2019-01-18T16:48:09.143Z,4.80
2019-01-18T16:50:37.852Z,3.60
2019-01-18T16:53:06.469Z,8.13
2019-01-18T16:55:35.124Z,9.47
2019-01-18T16:58:03.693Z,4.90
2019-01-18T17:00:38.216Z,5.77
2019-01-18T17:03:06.828Z,12.53
2019-01-18T17:05:35.443Z,7.07
2019-01-18T17:08:04.279Z,7.67
2019-01-18T17:10:32.827Z,9.73
2019-01-18T17:13:01.468Z,15.50
2019-01-18T17:15:30.088Z,25.27
2019-01-18T17:17:58.785Z,24.90
2019-01-18T17:20:33.210Z,18.70
2019-01-18T17:23:01.820Z,11.80
2019-01-18T17:25:30.376Z,18.57
2019-01-18T17:27:58.964Z,8.40
2019-01-18T17:30:27.588Z,7.70
2019-01-18T17:32:56.273Z,6.77
2019-01-18T17:35:33.843Z,6.00
2019-01-18T17:38:11.279Z,7.67
2019-01-18T17:40:43.075Z,5.33
2019-01-18T17:43:34.093Z,10.17
2019-01-18T17:46:25.492Z,5.20
2019-01-18T17:49:06.126Z,12.33
2019-01-18T17:51:55.970Z,12.27
2019-01-18T17:54:36.767Z,14.27
2019-01-18T17:57:17.754Z,5.17
2019-01-18T17:59:52.311Z,14.23
2019-01-18T18:02:36.071Z,9.30
2019-01-18T18:05:13.601Z,15.27
2019-01-18T18:07:47.955Z,13.23
2019-01-18T18:10:38.947Z,9.77
2019-01-18T18:13:16.577Z,18.27
2019-01-18T18:15:48.377Z,18.10
2019-01-18T18:18:25.738Z,11.77
2019-01-18T18:21:03.443Z,10.60
2019-01-18T18:23:57.691Z,9.80
2019-01-18T18:26:38.014Z,7.50
2019-01-18T18:29:09.807Z,10.30
2019-01-18T18:31:53.441Z,7.70
2019-01-18T18:34:25.273Z,7.20
2019-01-18T18:37:12.173Z,6.73
2019-01-18T18:39:49.581Z,13.10
2019-01-18T18:42:35.622Z,6.97
2019-01-18T18:45:26.909Z,7.20
2019-01-18T18:48:25.883Z,10.93
2019-01-18T18:51:00.772Z,13.53
2019-01-18T18:53:55.141Z,10.63
2019-01-18T18:56:42.758Z,6.97
2019-01-18T18:59:17.310Z,11.87
2019-01-18T19:01:58.093Z,7.00
2019-01-18T19:04:44.333Z,10.50
2019-01-18T19:07:27.531Z,11.20
2019-01-18T19:10:11.419Z,8.13
2019-01-18T19:12:55.180Z,8.40
2019-01-18T19:15:46.292Z,8.23
2019-01-18T19:18:37.732Z,9.10
2019-01-18T19:21:15.449Z,8.33
2019-01-18T19:23:59.181Z,10.27
2019-01-18T19:26:42.980Z,20.50
2019-01-18T19:29:17.333Z,14.37
2019-01-18T19:31:49.376Z,7.43
2019-01-18T19:34:51.628Z,14.90
2019-01-18T19:37:35.232Z,5.37
2019-01-18T19:40:09.481Z,9.60
2019-01-18T19:42:57.774Z,11.10
2019-01-18T19:45:32.528Z,7.10
2019-01-18T19:48:19.347Z,9.87
2019-01-18T19:51:03.170Z,10.77
2019-01-18T19:53:34.951Z,10.73
2019-01-18T19:56:09.424Z,9.27
2019-01-18T19:58:44.124Z,9.70
2019-01-18T20:01:30.126Z,9.23
2019-01-18T20:04:13.987Z,13.90
2019-01-18T20:07:13.184Z,9.13
2019-01-18T20:09:56.594Z,13.13
2019-01-18T20:12:43.268Z,13.33
2019-01-18T20:15:18.185Z,10.40
2019-01-18T20:18:09.861Z,8.00
2019-01-18T20:20:50.641Z,12.43
2019-01-18T20:23:31.333Z,8.47
2019-01-18T20:26:23.578Z,14.53
2019-01-18T20:28:55.371Z,25.33
2019-01-18T20:31:35.839Z,12.33
2019-01-18T20:34:32.027Z,10.17
2019-01-18T20:37:06.545Z,11.03
2019-01-18T20:39:50.828Z,10.73
2019-01-18T20:42:38.753Z,14.90
2019-01-18T20:45:27.990Z,13.93
2019-01-18T20:48:05.910Z,11.37
2019-01-18T20:50:52.900Z,9.33
2019-01-18T20:53:44.110Z,9.10
2019-01-18T20:56:20.821Z,11.63
2019-01-18T20:58:52.694Z,11.70
2019-01-18T21:01:30.433Z,14.67
2019-01-18T21:04:17.211Z,13.80
2019-01-18T21:07:08.648Z,9.20
2019-01-18T21:09:51.990Z,22.33
2019-01-18T21:12:29.331Z,9.37
2019-01-18T21:15:03.699Z,11.70
2019-01-18T21:17:38.313Z,8.63
2019-01-18T21:20:15.838Z,10.73
2019-01-18T21:22:53.496Z,12.67
2019-01-18T21:25:30.848Z,10.60
2019-01-18T21:28:23.696Z,9.30
2019-01-18T21:30:57.942Z,13.77
2019-01-18T21:33:38.453Z,12.23
2019-01-18T21:36:12.855Z,11.80
2019-01-18T21:39:02.574Z,11.13
2019-01-18T21:41:37.142Z,10.57
2019-01-18T21:44:29.863Z,10.20
2019-01-18T21:47:07.545Z,18.73
2019-01-18T21:49:44.827Z,14.23
2019-01-18T21:52:25.419Z,8.47
2019-01-18T21:55:09.043Z,8.87
2019-01-18T21:58:11.315Z,7.27
2019-01-18T22:00:59.401Z,5.57
2019-01-18T22:03:33.834Z,9.10
2019-01-18T22:06:25.007Z,8.57
2019-01-18T22:09:12.409Z,12.17
2019-01-18T22:12:05.155Z,9.80
2019-01-18T22:15:01.232Z,7.57
2019-01-18T22:18:00.101Z,8.43
2019-01-18T22:20:37.515Z,8.60
2019-01-18T22:23:09.587Z,8.77
2019-01-18T22:25:52.598Z,9.70
2019-01-18T22:28:26.960Z,12.53
2019-01-18T22:31:13.792Z,7.57
2019-01-18T22:33:51.070Z,10.93
2019-01-18T22:36:43.802Z,11.43
2019-01-18T22:39:27.451Z,9.97
2019-01-18T22:42:02.011Z,7.27
2019-01-18T22:45:05.591Z,11.90
2019-01-18T22:47:52.465Z,11.43
2019-01-18T22:50:27.218Z,10.70
2019-01-18T22:53:01.979Z,8.50
2019-01-18T22:55:33.773Z,8.40
2019-01-18T22:58:11.378Z,10.77
2019-01-18T23:01:07.263Z,10.70
2019-01-18T23:03:41.757Z,13.27
2019-01-18T23:06:25.574Z,11.87
2019-01-18T23:09:08.068Z,8.50
2019-01-18T23:11:39.842Z,7.83
2019-01-18T23:14:17.153Z,6.63
2019-01-18T23:17:00.604Z,8.67
2019-01-18T23:19:40.949Z,12.13
2019-01-18T23:22:29.362Z,9.03
2019-01-18T23:25:04.119Z,8.30
2019-01-18T23:28:04.372Z,13.83
2019-01-18T23:30:56.914Z,8.23
2019-01-18T23:33:34.477Z,11.83
2019-01-18T23:36:12.044Z,11.90
2019-01-18T23:39:04.940Z,8.80
2019-01-18T23:41:39.682Z,10.23
2019-01-18T23:44:26.380Z,8.63
2019-01-18T23:47:01.342Z,9.37
2019-01-18T23:49:52.540Z,12.20
2019-01-18T23:52:33.021Z,10.27
2019-01-18T23:55:23.377Z,11.77
2019-01-18T23:57:57.882Z,13.00
